sensor_id;sensor_type;location;lat;lon;timestamp;P1;durP1;ratioP1;P2;durP2;ratioP2
10811;SDS011;5458;51.496;7.334;2022-09-19T00:00:38;6.72;;;2.63;;
10811;SDS011;5458;51.496;7.334;2022-09-19T00:03:05;6.80;;;2.88;;
10811;SDS011;5458;51.496;7.334;2022-09-19T00:05:31;9.02;;;2.60;;
10811;SDS011;5458;51.496;7.334;2022-09-19T00:07:56;9.48;;;3.10;;
10811;SDS011;5458;51.496;7.334;2022-09-19T00:10:22;8.20;;;2.78;;
10811;SDS011;5458;51.496;7.334;2022-09-19T00:12:48;6.38;;;3.35;;
10811;SDS011;5458;51.496;7.334;2022-09-19T00:15:13;9.00;;;2.85;;
10811;SDS011;5458;51.496;7.334;2022-09-19T00:17:39;8.20;;;3.80;;
10811;SDS011;5458;51.496;7.334;2022-09-19T00:20:05;9.30;;;3.17;;
10811;SDS011;5458;51.496;7.334;2022-09-19T00:22:31;13.68;;;4.30;;
10811;SDS011;5458;51.496;7.334;2022-09-19T00:24:57;7.45;;;2.85;;
10811;SDS011;5458;51.496;7.334;2022-09-19T00:27:25;10.52;;;3.30;;
10811;SDS011;5458;51.496;7.334;2022-09-19T00:29:52;9.32;;;3.80;;
10811;SDS011;5458;51.496;7.334;2022-09-19T00:32:22;8.57;;;3.67;;
10811;SDS011;5458;51.496;7.334;2022-09-19T00:34:49;7.75;;;2.92;;
10811;SDS011;5458;51.496;7.334;2022-09-19T00:37:17;6.15;;;2.42;;
10811;SDS011;5458;51.496;7.334;2022-09-19T00:39:44;7.93;;;2.78;;
10811;SDS011;5458;51.496;7.334;2022-09-19T00:42:17;10.73;;;3.15;;
10811;SDS011;5458;51.496;7.334;2022-09-19T00:44:53;6.75;;;2.88;;
10811;SDS011;5458;51.496;7.334;2022-09-19T00:47:22;5.80;;;2.80;;
10811;SDS011;5458;51.496;7.334;2022-09-19T00:49:53;6.22;;;2.58;;
10811;SDS011;5458;51.496;7.334;2022-09-19T00:55:21;8.90;;;3.10;;
10811;SDS011;5458;51.496;7.334;2022-09-19T00:57:55;13.90;;;4.38;;
10811;SDS011;5458;51.496;7.334;2022-09-19T01:00:49;15.13;;;3.05;;
10811;SDS011;5458;51.496;7.334;2022-09-19T01:03:15;9.45;;;3.05;;
10811;SDS011;5458;51.496;7.334;2022-09-19T01:05:59;11.25;;;3.30;;
10811;SDS011;5458;51.496;7.334;2022-09-19T01:09:26;6.85;;;2.80;;
10811;SDS011;5458;51.496;7.334;2022-09-19T01:15:09;7.65;;;2.60;;
10811;SDS011;5458;51.496;7.334;2022-09-19T01:17:47;8.20;;;3.00;;
10811;SDS011;5458;51.496;7.334;2022-09-19T01:20:50;7.85;;;3.05;;
10811;SDS011;5458;51.496;7.334;2022-09-19T01:23:34;6.63;;;2.92;;
10811;SDS011;5458;51.496;7.334;2022-09-19T01:28:39;11.88;;;3.38;;
10811;SDS011;5458;51.496;7.334;2022-09-19T01:31:17;9.07;;;3.35;;
10811;SDS011;5458;51.496;7.334;2022-09-19T01:33:50;9.18;;;2.88;;
10811;SDS011;5458;51.496;7.334;2022-09-19T01:36:20;9.05;;;3.47;;
10811;SDS011;5458;51.496;7.334;2022-09-19T01:38:51;13.15;;;3.15;;
10811;SDS011;5458;51.496;7.334;2022-09-19T01:41:18;10.30;;;3.13;;
10811;SDS011;5458;51.496;7.334;2022-09-19T01:43:46;9.38;;;2.83;;
10811;SDS011;5458;51.496;7.334;2022-09-19T01:46:19;13.90;;;3.53;;
10811;SDS011;5458;51.496;7.334;2022-09-19T01:49:17;7.90;;;2.85;;
10811;SDS011;5458;51.496;7.334;2022-09-19T01:51:47;11.27;;;3.65;;
10811;SDS011;5458;51.496;7.334;2022-09-19T01:57:41;11.25;;;3.35;;
10811;SDS011;5458;51.496;7.334;2022-09-19T02:07:37;11.48;;;3.05;;
10811;SDS011;5458;51.496;7.334;2022-09-19T02:10:16;12.88;;;3.95;;
10811;SDS011;5458;51.496;7.334;2022-09-19T02:12:47;8.60;;;3.33;;
10811;SDS011;5458;51.496;7.334;2022-09-19T02:15:17;12.18;;;3.03;;
10811;SDS011;5458;51.496;7.334;2022-09-19T02:17:48;14.13;;;3.55;;
10811;SDS011;5458;51.496;7.334;2022-09-19T02:20:24;12.68;;;3.95;;
10811;SDS011;5458;51.496;7.334;2022-09-19T02:22:56;7.75;;;2.88;;
10811;SDS011;5458;51.496;7.334;2022-09-19T02:25:40;12.50;;;3.03;;
10811;SDS011;5458;51.496;7.334;2022-09-19T02:28:10;8.02;;;3.00;;
10811;SDS011;5458;51.496;7.334;2022-09-19T02:30:41;9.20;;;2.90;;
10811;SDS011;5458;51.496;7.334;2022-09-19T02:33:08;11.45;;;2.97;;
10811;SDS011;5458;51.496;7.334;2022-09-19T02:35:48;10.68;;;3.40;;
10811;SDS011;5458;51.496;7.334;2022-09-19T02:38:33;9.88;;;3.60;;
10811;SDS011;5458;51.496;7.334;2022-09-19T02:41:22;9.02;;;3.58;;
10811;SDS011;5458;51.496;7.334;2022-09-19T02:43:54;10.13;;;3.42;;
10811;SDS011;5458;51.496;7.334;2022-09-19T02:46:38;10.77;;;3.15;;
10811;SDS011;5458;51.496;7.334;2022-09-19T02:49:16;9.57;;;2.72;;
10811;SDS011;5458;51.496;7.334;2022-09-19T02:51:54;12.77;;;3.22;;
10811;SDS011;5458;51.496;7.334;2022-09-19T02:54:27;10.75;;;3.45;;
10811;SDS011;5458;51.496;7.334;2022-09-19T02:57:03;9.95;;;3.30;;
10811;SDS011;5458;51.496;7.334;2022-09-19T02:59:34;12.00;;;3.35;;
10811;SDS011;5458;51.496;7.334;2022-09-19T03:02:51;13.43;;;3.53;;
10811;SDS011;5458;51.496;7.334;2022-09-19T03:04:59;9.70;;;3.72;;
10811;SDS011;5458;51.496;7.334;2022-09-19T03:07:41;11.00;;;3.83;;
10811;SDS011;5458;51.496;7.334;2022-09-19T03:10:12;6.50;;;2.92;;
10811;SDS011;5458;51.496;7.334;2022-09-19T03:12:48;6.57;;;2.58;;
10811;SDS011;5458;51.496;7.334;2022-09-19T03:15:31;9.57;;;3.22;;
10811;SDS011;5458;51.496;7.334;2022-09-19T03:18:00;10.45;;;3.40;;
10811;SDS011;5458;51.496;7.334;2022-09-19T03:20:29;20.05;;;4.68;;
10811;SDS011;5458;51.496;7.334;2022-09-19T03:23:00;14.55;;;3.65;;
10811;SDS011;5458;51.496;7.334;2022-09-19T03:25:25;8.93;;;3.10;;
10811;SDS011;5458;51.496;7.334;2022-09-19T03:27:51;9.20;;;2.95;;
10811;SDS011;5458;51.496;7.334;2022-09-19T03:30:17;8.82;;;4.07;;
10811;SDS011;5458;51.496;7.334;2022-09-19T03:32:42;10.05;;;3.30;;
10811;SDS011;5458;51.496;7.334;2022-09-19T03:35:08;12.98;;;3.72;;
10811;SDS011;5458;51.496;7.334;2022-09-19T03:37:35;13.77;;;3.20;;
10811;SDS011;5458;51.496;7.334;2022-09-19T03:40:01;13.02;;;3.90;;
10811;SDS011;5458;51.496;7.334;2022-09-19T03:42:27;9.45;;;3.97;;
10811;SDS011;5458;51.496;7.334;2022-09-19T03:44:53;7.93;;;3.08;;
10811;SDS011;5458;51.496;7.334;2022-09-19T03:47:20;12.77;;;2.92;;
10811;SDS011;5458;51.496;7.334;2022-09-19T03:49:49;11.07;;;4.22;;
10811;SDS011;5458;51.496;7.334;2022-09-19T03:52:15;11.95;;;3.40;;
10811;SDS011;5458;51.496;7.334;2022-09-19T03:54:42;12.77;;;3.50;;
10811;SDS011;5458;51.496;7.334;2022-09-19T03:57:09;9.70;;;2.65;;
10811;SDS011;5458;51.496;7.334;2022-09-19T03:59:36;6.93;;;3.10;;
10811;SDS011;5458;51.496;7.334;2022-09-19T04:02:05;12.80;;;3.83;;
10811;SDS011;5458;51.496;7.334;2022-09-19T04:04:31;7.28;;;3.55;;
10811;SDS011;5458;51.496;7.334;2022-09-19T04:06:57;10.30;;;4.28;;
10811;SDS011;5458;51.496;7.334;2022-09-19T04:09:23;10.40;;;3.70;;
10811;SDS011;5458;51.496;7.334;2022-09-19T04:11:50;17.23;;;4.22;;
10811;SDS011;5458;51.496;7.334;2022-09-19T04:14:16;10.55;;;3.63;;
10811;SDS011;5458;51.496;7.334;2022-09-19T04:16:42;15.00;;;3.50;;
10811;SDS011;5458;51.496;7.334;2022-09-19T04:19:08;12.82;;;4.50;;
10811;SDS011;5458;51.496;7.334;2022-09-19T04:21:34;9.95;;;4.30;;
10811;SDS011;5458;51.496;7.334;2022-09-19T04:24:00;13.00;;;3.67;;
10811;SDS011;5458;51.496;7.334;2022-09-19T04:26:26;11.65;;;3.28;;
10811;SDS011;5458;51.496;7.334;2022-09-19T04:28:52;14.82;;;3.47;;
10811;SDS011;5458;51.496;7.334;2022-09-19T04:31:17;12.90;;;3.53;;
10811;SDS011;5458;51.496;7.334;2022-09-19T04:33:43;10.05;;;3.40;;
10811;SDS011;5458;51.496;7.334;2022-09-19T04:36:09;6.03;;;3.45;;
10811;SDS011;5458;51.496;7.334;2022-09-19T04:38:34;13.63;;;3.17;;
10811;SDS011;5458;51.496;7.334;2022-09-19T04:41:02;12.23;;;3.17;;
10811;SDS011;5458;51.496;7.334;2022-09-19T04:43:28;7.13;;;3.30;;
10811;SDS011;5458;51.496;7.334;2022-09-19T04:45:54;11.27;;;3.10;;
10811;SDS011;5458;51.496;7.334;2022-09-19T04:48:21;13.48;;;3.50;;
10811;SDS011;5458;51.496;7.334;2022-09-19T04:50:48;9.27;;;3.50;;
10811;SDS011;5458;51.496;7.334;2022-09-19T04:53:19;10.07;;;3.55;;
10811;SDS011;5458;51.496;7.334;2022-09-19T04:55:51;10.80;;;3.35;;
10811;SDS011;5458;51.496;7.334;2022-09-19T04:58:18;8.02;;;3.28;;
10811;SDS011;5458;51.496;7.334;2022-09-19T05:00:49;15.85;;;3.78;;
10811;SDS011;5458;51.496;7.334;2022-09-19T05:03:18;12.73;;;3.47;;
10811;SDS011;5458;51.496;7.334;2022-09-19T05:05:46;15.32;;;4.25;;
10811;SDS011;5458;51.496;7.334;2022-09-19T05:08:17;13.63;;;4.50;;
10811;SDS011;5458;51.496;7.334;2022-09-19T05:10:45;14.32;;;4.38;;
10811;SDS011;5458;51.496;7.334;2022-09-19T05:13:12;12.38;;;3.35;;
10811;SDS011;5458;51.496;7.334;2022-09-19T05:15:38;11.75;;;4.10;;
10811;SDS011;5458;51.496;7.334;2022-09-19T05:18:06;11.32;;;3.97;;
10811;SDS011;5458;51.496;7.334;2022-09-19T05:20:35;13.75;;;3.80;;
10811;SDS011;5458;51.496;7.334;2022-09-19T05:23:02;12.02;;;4.22;;
10811;SDS011;5458;51.496;7.334;2022-09-19T05:25:28;11.57;;;4.78;;
10811;SDS011;5458;51.496;7.334;2022-09-19T05:27:56;12.65;;;3.83;;
10811;SDS011;5458;51.496;7.334;2022-09-19T05:30:22;15.15;;;4.03;;
10811;SDS011;5458;51.496;7.334;2022-09-19T05:32:50;14.10;;;3.85;;
10811;SDS011;5458;51.496;7.334;2022-09-19T05:35:16;8.95;;;3.72;;
10811;SDS011;5458;51.496;7.334;2022-09-19T05:37:42;10.80;;;4.20;;
10811;SDS011;5458;51.496;7.334;2022-09-19T05:40:09;10.35;;;3.70;;
10811;SDS011;5458;51.496;7.334;2022-09-19T05:42:38;11.35;;;3.35;;
10811;SDS011;5458;51.496;7.334;2022-09-19T05:45:05;6.95;;;3.85;;
10811;SDS011;5458;51.496;7.334;2022-09-19T05:47:31;12.85;;;3.63;;
10811;SDS011;5458;51.496;7.334;2022-09-19T05:49:57;12.52;;;3.97;;
10811;SDS011;5458;51.496;7.334;2022-09-19T05:52:22;8.32;;;3.40;;
10811;SDS011;5458;51.496;7.334;2022-09-19T05:55:07;11.60;;;3.83;;
10811;SDS011;5458;51.496;7.334;2022-09-19T05:57:33;13.15;;;3.78;;
10811;SDS011;5458;51.496;7.334;2022-09-19T05:59:59;9.70;;;4.13;;
10811;SDS011;5458;51.496;7.334;2022-09-19T06:02:24;14.80;;;4.60;;
10811;SDS011;5458;51.496;7.334;2022-09-19T06:04:50;10.30;;;4.70;;
10811;SDS011;5458;51.496;7.334;2022-09-19T06:07:16;10.07;;;3.58;;
10811;SDS011;5458;51.496;7.334;2022-09-19T06:09:42;11.38;;;4.13;;
10811;SDS011;5458;51.496;7.334;2022-09-19T06:12:07;15.75;;;4.18;;
10811;SDS011;5458;51.496;7.334;2022-09-19T06:14:33;21.42;;;3.78;;
10811;SDS011;5458;51.496;7.334;2022-09-19T06:17:03;8.32;;;3.13;;
10811;SDS011;5458;51.496;7.334;2022-09-19T06:19:29;9.38;;;4.00;;
10811;SDS011;5458;51.496;7.334;2022-09-19T06:21:56;13.45;;;3.80;;
10811;SDS011;5458;51.496;7.334;2022-09-19T06:24:22;13.25;;;3.45;;
10811;SDS011;5458;51.496;7.334;2022-09-19T06:26:51;7.88;;;3.95;;
10811;SDS011;5458;51.496;7.334;2022-09-19T06:29:18;15.63;;;3.88;;
10811;SDS011;5458;51.496;7.334;2022-09-19T06:31:44;9.20;;;4.28;;
10811;SDS011;5458;51.496;7.334;2022-09-19T06:34:10;11.77;;;3.80;;
10811;SDS011;5458;51.496;7.334;2022-09-19T06:36:37;7.72;;;3.05;;
10811;SDS011;5458;51.496;7.334;2022-09-19T06:39:02;12.77;;;3.28;;
10811;SDS011;5458;51.496;7.334;2022-09-19T06:41:28;8.15;;;2.85;;
10811;SDS011;5458;51.496;7.334;2022-09-19T06:43:55;8.20;;;3.55;;
10811;SDS011;5458;51.496;7.334;2022-09-19T06:46:21;10.45;;;4.40;;
10811;SDS011;5458;51.496;7.334;2022-09-19T06:48:47;12.60;;;3.13;;
10811;SDS011;5458;51.496;7.334;2022-09-19T06:51:15;9.15;;;3.05;;
10811;SDS011;5458;51.496;7.334;2022-09-19T06:53:41;11.10;;;3.40;;
10811;SDS011;5458;51.496;7.334;2022-09-19T06:56:06;11.32;;;3.58;;
10811;SDS011;5458;51.496;7.334;2022-09-19T06:58:32;6.60;;;3.35;;
10811;SDS011;5458;51.496;7.334;2022-09-19T07:01:01;7.18;;;3.10;;
10811;SDS011;5458;51.496;7.334;2022-09-19T07:03:27;9.15;;;2.90;;
10811;SDS011;5458;51.496;7.334;2022-09-19T07:05:52;8.18;;;3.33;;
10811;SDS011;5458;51.496;7.334;2022-09-19T07:08:21;9.52;;;3.22;;
10811;SDS011;5458;51.496;7.334;2022-09-19T07:10:47;11.05;;;3.45;;
10811;SDS011;5458;51.496;7.334;2022-09-19T07:13:13;7.38;;;2.90;;
10811;SDS011;5458;51.496;7.334;2022-09-19T07:15:39;6.55;;;2.80;;
10811;SDS011;5458;51.496;7.334;2022-09-19T07:18:05;6.10;;;3.05;;
10811;SDS011;5458;51.496;7.334;2022-09-19T07:20:36;7.53;;;3.70;;
10811;SDS011;5458;51.496;7.334;2022-09-19T07:23:04;7.35;;;3.10;;
10811;SDS011;5458;51.496;7.334;2022-09-19T07:25:30;12.80;;;3.67;;
10811;SDS011;5458;51.496;7.334;2022-09-19T07:28:06;9.95;;;3.00;;
10811;SDS011;5458;51.496;7.334;2022-09-19T07:30:34;10.65;;;4.35;;
10811;SDS011;5458;51.496;7.334;2022-09-19T07:33:01;7.13;;;3.10;;
10811;SDS011;5458;51.496;7.334;2022-09-19T07:35:29;16.40;;;4.05;;
10811;SDS011;5458;51.496;7.334;2022-09-19T07:37:57;11.15;;;3.28;;
10811;SDS011;5458;51.496;7.334;2022-09-19T07:40:23;11.48;;;3.17;;
10811;SDS011;5458;51.496;7.334;2022-09-19T07:42:49;9.35;;;3.42;;
10811;SDS011;5458;51.496;7.334;2022-09-19T07:45:18;7.57;;;3.63;;
10811;SDS011;5458;51.496;7.334;2022-09-19T07:47:44;11.27;;;3.55;;
10811;SDS011;5458;51.496;7.334;2022-09-19T07:50:11;8.35;;;3.13;;
10811;SDS011;5458;51.496;7.334;2022-09-19T07:52:39;5.65;;;2.63;;
10811;SDS011;5458;51.496;7.334;2022-09-19T07:55:05;5.07;;;2.90;;
10811;SDS011;5458;51.496;7.334;2022-09-19T07:57:32;8.48;;;3.03;;
10811;SDS011;5458;51.496;7.334;2022-09-19T07:59:58;8.20;;;2.17;;
10811;SDS011;5458;51.496;7.334;2022-09-19T08:02:23;6.72;;;2.22;;
10811;SDS011;5458;51.496;7.334;2022-09-19T08:04:49;10.02;;;3.05;;
10811;SDS011;5458;51.496;7.334;2022-09-19T08:07:14;9.88;;;3.05;;
10811;SDS011;5458;51.496;7.334;2022-09-19T08:09:40;6.10;;;2.10;;
10811;SDS011;5458;51.496;7.334;2022-09-19T08:12:06;8.63;;;2.60;;
10811;SDS011;5458;51.496;7.334;2022-09-19T08:14:34;6.88;;;2.35;;
10811;SDS011;5458;51.496;7.334;2022-09-19T08:17:00;9.13;;;2.58;;
10811;SDS011;5458;51.496;7.334;2022-09-19T08:19:25;7.45;;;2.40;;
10811;SDS011;5458;51.496;7.334;2022-09-19T08:21:51;6.10;;;1.90;;
10811;SDS011;5458;51.496;7.334;2022-09-19T08:24:17;9.25;;;2.08;;
10811;SDS011;5458;51.496;7.334;2022-09-19T08:26:43;4.90;;;1.75;;
10811;SDS011;5458;51.496;7.334;2022-09-19T08:29:09;6.47;;;1.90;;
10811;SDS011;5458;51.496;7.334;2022-09-19T08:31:34;8.50;;;2.00;;
10811;SDS011;5458;51.496;7.334;2022-09-19T08:34:01;5.68;;;1.45;;
10811;SDS011;5458;51.496;7.334;2022-09-19T08:36:27;6.93;;;2.40;;
10811;SDS011;5458;51.496;7.334;2022-09-19T08:38:53;5.10;;;1.60;;
10811;SDS011;5458;51.496;7.334;2022-09-19T08:41:24;5.63;;;1.50;;
10811;SDS011;5458;51.496;7.334;2022-09-19T08:44:18;6.13;;;1.30;;
10811;SDS011;5458;51.496;7.334;2022-09-19T08:49:39;6.22;;;1.77;;
10811;SDS011;5458;51.496;7.334;2022-09-19T08:52:45;9.32;;;2.38;;
10811;SDS011;5458;51.496;7.334;2022-09-19T08:55:15;5.10;;;1.50;;
10811;SDS011;5458;51.496;7.334;2022-09-19T08:57:48;4.80;;;1.73;;
10811;SDS011;5458;51.496;7.334;2022-09-19T09:00:26;6.70;;;1.70;;
10811;SDS011;5458;51.496;7.334;2022-09-19T09:02:58;5.80;;;1.52;;
10811;SDS011;5458;51.496;7.334;2022-09-19T09:13:51;4.55;;;1.40;;
10811;SDS011;5458;51.496;7.334;2022-09-19T09:16:27;2.90;;;1.02;;
10811;SDS011;5458;51.496;7.334;2022-09-19T09:21:49;3.95;;;1.50;;
10811;SDS011;5458;51.496;7.334;2022-09-19T09:24:45;5.85;;;1.45;;
10811;SDS011;5458;51.496;7.334;2022-09-19T09:27:19;3.92;;;1.52;;
10811;SDS011;5458;51.496;7.334;2022-09-19T09:29:49;7.47;;;1.50;;
10811;SDS011;5458;51.496;7.334;2022-09-19T09:35:02;2.03;;;1.00;;
10811;SDS011;5458;51.496;7.334;2022-09-19T09:40:12;7.05;;;1.48;;
10811;SDS011;5458;51.496;7.334;2022-09-19T09:43:05;4.63;;;1.40;;
10811;SDS011;5458;51.496;7.334;2022-09-19T09:45:42;7.18;;;1.35;;
10811;SDS011;5458;51.496;7.334;2022-09-19T09:48:12;6.72;;;1.38;;
10811;SDS011;5458;51.496;7.334;2022-09-19T09:56:26;2.97;;;1.23;;
10811;SDS011;5458;51.496;7.334;2022-09-19T10:06:23;5.80;;;1.50;;
10811;SDS011;5458;51.496;7.334;2022-09-19T10:08:41;2.95;;;1.48;;
10811;SDS011;5458;51.496;7.334;2022-09-19T10:11:17;4.72;;;1.70;;
10811;SDS011;5458;51.496;7.334;2022-09-19T10:13:52;4.03;;;1.33;;
10811;SDS011;5458;51.496;7.334;2022-09-19T10:16:26;7.22;;;1.35;;
10811;SDS011;5458;51.496;7.334;2022-09-19T10:19:00;6.85;;;1.60;;
10811;SDS011;5458;51.496;7.334;2022-09-19T10:21:36;5.80;;;1.60;;
10811;SDS011;5458;51.496;7.334;2022-09-19T10:24:03;3.55;;;1.13;;
10811;SDS011;5458;51.496;7.334;2022-09-19T10:27:11;2.10;;;1.20;;
10811;SDS011;5458;51.496;7.334;2022-09-19T10:29:52;4.55;;;1.50;;
10811;SDS011;5458;51.496;7.334;2022-09-19T10:32:21;3.78;;;1.20;;
10811;SDS011;5458;51.496;7.334;2022-09-19T10:34:49;3.58;;;1.13;;
10811;SDS011;5458;51.496;7.334;2022-09-19T10:37:16;3.97;;;1.05;;
10811;SDS011;5458;51.496;7.334;2022-09-19T10:39:44;6.05;;;1.60;;
10811;SDS011;5458;51.496;7.334;2022-09-19T10:45:13;11.00;;;2.08;;
10811;SDS011;5458;51.496;7.334;2022-09-19T10:47:51;6.75;;;1.60;;
10811;SDS011;5458;51.496;7.334;2022-09-19T10:50:19;7.18;;;1.90;;
10811;SDS011;5458;51.496;7.334;2022-09-19T10:52:46;6.88;;;1.85;;
10811;SDS011;5458;51.496;7.334;2022-09-19T10:55:15;7.10;;;1.13;;
10811;SDS011;5458;51.496;7.334;2022-09-19T10:58:01;8.07;;;2.63;;
10811;SDS011;5458;51.496;7.334;2022-09-19T11:00:50;4.05;;;1.50;;
10811;SDS011;5458;51.496;7.334;2022-09-19T11:06:02;4.10;;;1.10;;
10811;SDS011;5458;51.496;7.334;2022-09-19T11:08:28;4.82;;;1.45;;
10811;SDS011;5458;51.496;7.334;2022-09-19T11:10:55;4.45;;;1.27;;
10811;SDS011;5458;51.496;7.334;2022-09-19T11:13:21;7.05;;;1.63;;
10811;SDS011;5458;51.496;7.334;2022-09-19T11:18:26;6.68;;;1.50;;
10811;SDS011;5458;51.496;7.334;2022-09-19T11:21:10;4.43;;;0.98;;
10811;SDS011;5458;51.496;7.334;2022-09-19T11:23:45;8.05;;;2.08;;
10811;SDS011;5458;51.496;7.334;2022-09-19T11:45:22;7.03;;;1.67;;
10811;SDS011;5458;51.496;7.334;2022-09-19T11:59:14;4.20;;;1.33;;
10811;SDS011;5458;51.496;7.334;2022-09-19T12:08:19;6.65;;;1.08;;
10811;SDS011;5458;51.496;7.334;2022-09-19T12:11:17;4.43;;;0.95;;
10811;SDS011;5458;51.496;7.334;2022-09-19T12:16:22;6.13;;;1.10;;
10811;SDS011;5458;51.496;7.334;2022-09-19T12:19:03;3.75;;;1.08;;
10811;SDS011;5458;51.496;7.334;2022-09-19T12:21:35;3.70;;;1.15;;
10811;SDS011;5458;51.496;7.334;2022-09-19T12:24:17;5.28;;;1.55;;
10811;SDS011;5458;51.496;7.334;2022-09-19T12:27:16;4.60;;;0.85;;
10811;SDS011;5458;51.496;7.334;2022-09-19T12:35:42;3.40;;;1.13;;
10811;SDS011;5458;51.496;7.334;2022-09-19T12:47:05;2.22;;;0.80;;
10811;SDS011;5458;51.496;7.334;2022-09-19T12:52:40;4.90;;;0.65;;
10811;SDS011;5458;51.496;7.334;2022-09-19T12:55:20;2.40;;;0.60;;
10811;SDS011;5458;51.496;7.334;2022-09-19T12:58:01;3.35;;;0.95;;
10811;SDS011;5458;51.496;7.334;2022-09-19T13:00:34;2.65;;;0.60;;
10811;SDS011;5458;51.496;7.334;2022-09-19T13:03:11;0.73;;;0.60;;
10811;SDS011;5458;51.496;7.334;2022-09-19T13:05:57;3.47;;;0.73;;
10811;SDS011;5458;51.496;7.334;2022-09-19T13:08:46;2.80;;;1.15;;
10811;SDS011;5458;51.496;7.334;2022-09-19T13:16:33;7.78;;;1.20;;
10811;SDS011;5458;51.496;7.334;2022-09-19T13:19:00;2.10;;;0.75;;
10811;SDS011;5458;51.496;7.334;2022-09-19T13:21:48;0.75;;;0.50;;
10811;SDS011;5458;51.496;7.334;2022-09-19T13:24:37;3.60;;;1.00;;
10811;SDS011;5458;51.496;7.334;2022-09-19T13:27:06;2.70;;;0.77;;
10811;SDS011;5458;51.496;7.334;2022-09-19T13:32:01;1.88;;;0.60;;
10811;SDS011;5458;51.496;7.334;2022-09-19T13:36:58;2.00;;;0.82;;
10811;SDS011;5458;51.496;7.334;2022-09-19T13:39:44;2.78;;;1.15;;
10811;SDS011;5458;51.496;7.334;2022-09-19T13:42:25;4.93;;;1.30;;
10811;SDS011;5458;51.496;7.334;2022-09-19T13:44:59;3.42;;;1.02;;
10811;SDS011;5458;51.496;7.334;2022-09-19T13:47:33;2.50;;;1.10;;
10811;SDS011;5458;51.496;7.334;2022-09-19T13:50:23;4.60;;;1.45;;
10811;SDS011;5458;51.496;7.334;2022-09-19T13:52:54;3.17;;;0.93;;
10811;SDS011;5458;51.496;7.334;2022-09-19T13:58:15;3.15;;;0.75;;
10811;SDS011;5458;51.496;7.334;2022-09-19T14:03:57;0.68;;;0.50;;
10811;SDS011;5458;51.496;7.334;2022-09-19T14:06:42;2.88;;;0.60;;
10811;SDS011;5458;51.496;7.334;2022-09-19T14:09:14;0.82;;;0.57;;
10811;SDS011;5458;51.496;7.334;2022-09-19T14:12:00;1.90;;;0.60;;
10811;SDS011;5458;51.496;7.334;2022-09-19T14:19:44;1.23;;;0.63;;
10811;SDS011;5458;51.496;7.334;2022-09-19T14:30:38;2.25;;;1.05;;
10811;SDS011;5458;51.496;7.334;2022-09-19T14:36:14;2.83;;;0.93;;
10811;SDS011;5458;51.496;7.334;2022-09-19T14:42:10;4.70;;;1.02;;
10811;SDS011;5458;51.496;7.334;2022-09-19T14:50:56;4.97;;;1.73;;
10811;SDS011;5458;51.496;7.334;2022-09-19T14:53:25;2.00;;;1.13;;
10811;SDS011;5458;51.496;7.334;2022-09-19T14:55:59;5.13;;;1.35;;
10811;SDS011;5458;51.496;7.334;2022-09-19T14:58:26;2.63;;;1.20;;
10811;SDS011;5458;51.496;7.334;2022-09-19T15:00:55;4.75;;;1.42;;
10811;SDS011;5458;51.496;7.334;2022-09-19T15:03:30;4.28;;;1.40;;
10811;SDS011;5458;51.496;7.334;2022-09-19T15:08:59;4.20;;;1.50;;
10811;SDS011;5458;51.496;7.334;2022-09-19T15:11:25;5.13;;;1.73;;
10811;SDS011;5458;51.496;7.334;2022-09-19T15:13:51;3.72;;;1.00;;
10811;SDS011;5458;51.496;7.334;2022-09-19T15:16:21;3.53;;;1.15;;
10811;SDS011;5458;51.496;7.334;2022-09-19T15:18:48;3.30;;;1.30;;
10811;SDS011;5458;51.496;7.334;2022-09-19T15:21:17;3.45;;;0.93;;
10811;SDS011;5458;51.496;7.334;2022-09-19T15:23:49;2.10;;;1.30;;
10811;SDS011;5458;51.496;7.334;2022-09-19T15:26:17;4.15;;;1.27;;
10811;SDS011;5458;51.496;7.334;2022-09-19T15:31:26;2.45;;;1.33;;
10811;SDS011;5458;51.496;7.334;2022-09-19T15:34:06;2.22;;;1.25;;
10811;SDS011;5458;51.496;7.334;2022-09-19T15:36:38;1.42;;;1.20;;
10811;SDS011;5458;51.496;7.334;2022-09-19T15:39:05;2.90;;;1.30;;
10811;SDS011;5458;51.496;7.334;2022-09-19T15:41:34;2.05;;;1.08;;
10811;SDS011;5458;51.496;7.334;2022-09-19T15:44:00;3.17;;;1.20;;
10811;SDS011;5458;51.496;7.334;2022-09-19T15:46:34;4.65;;;1.38;;
10811;SDS011;5458;51.496;7.334;2022-09-19T15:51:54;1.50;;;1.02;;
10811;SDS011;5458;51.496;7.334;2022-09-19T15:54:50;3.90;;;1.52;;
10811;SDS011;5458;51.496;7.334;2022-09-19T15:57:22;3.90;;;1.10;;
10811;SDS011;5458;51.496;7.334;2022-09-19T16:00:07;2.45;;;1.13;;
10811;SDS011;5458;51.496;7.334;2022-09-19T16:02:43;3.03;;;1.27;;
10811;SDS011;5458;51.496;7.334;2022-09-19T16:05:17;2.70;;;1.10;;
10811;SDS011;5458;51.496;7.334;2022-09-19T16:07:49;1.35;;;1.23;;
10811;SDS011;5458;51.496;7.334;2022-09-19T16:10:39;4.78;;;1.30;;
10811;SDS011;5458;51.496;7.334;2022-09-19T16:18:59;2.38;;;1.13;;
10811;SDS011;5458;51.496;7.334;2022-09-19T16:23:58;3.78;;;1.83;;
10811;SDS011;5458;51.496;7.334;2022-09-19T16:26:26;3.83;;;1.10;;
10811;SDS011;5458;51.496;7.334;2022-09-19T16:28:57;2.78;;;1.15;;
10811;SDS011;5458;51.496;7.334;2022-09-19T16:31:37;3.80;;;1.60;;
10811;SDS011;5458;51.496;7.334;2022-09-19T16:36:42;4.85;;;1.67;;
10811;SDS011;5458;51.496;7.334;2022-09-19T16:44:50;2.58;;;1.30;;
10811;SDS011;5458;51.496;7.334;2022-09-19T16:47:27;3.83;;;1.50;;
10811;SDS011;5458;51.496;7.334;2022-09-19T16:49:53;2.42;;;1.33;;
10811;SDS011;5458;51.496;7.334;2022-09-19T16:52:27;2.20;;;1.40;;
10811;SDS011;5458;51.496;7.334;2022-09-19T16:54:56;2.38;;;1.52;;
10811;SDS011;5458;51.496;7.334;2022-09-19T16:57:24;2.05;;;1.17;;
10811;SDS011;5458;51.496;7.334;2022-09-19T16:59:51;3.55;;;1.48;;
10811;SDS011;5458;51.496;7.334;2022-09-19T17:04:53;3.28;;;1.40;;
10811;SDS011;5458;51.496;7.334;2022-09-19T17:07:20;3.38;;;1.15;;
10811;SDS011;5458;51.496;7.334;2022-09-19T17:09:47;2.10;;;1.00;;
10811;SDS011;5458;51.496;7.334;2022-09-19T17:12:14;1.92;;;1.10;;
10811;SDS011;5458;51.496;7.334;2022-09-19T17:14:41;1.60;;;0.90;;
10811;SDS011;5458;51.496;7.334;2022-09-19T17:17:09;4.10;;;0.88;;
10811;SDS011;5458;51.496;7.334;2022-09-19T17:19:36;3.08;;;0.93;;
10811;SDS011;5458;51.496;7.334;2022-09-19T17:22:03;2.65;;;1.15;;
10811;SDS011;5458;51.496;7.334;2022-09-19T17:24:29;4.85;;;1.20;;
10811;SDS011;5458;51.496;7.334;2022-09-19T17:26:54;2.08;;;0.80;;
10811;SDS011;5458;51.496;7.334;2022-09-19T17:29:20;3.53;;;1.10;;
10811;SDS011;5458;51.496;7.334;2022-09-19T17:31:45;4.10;;;1.20;;
10811;SDS011;5458;51.496;7.334;2022-09-19T17:34:12;2.60;;;1.23;;
10811;SDS011;5458;51.496;7.334;2022-09-19T17:36:39;1.92;;;1.10;;
10811;SDS011;5458;51.496;7.334;2022-09-19T17:39:05;3.38;;;1.48;;
10811;SDS011;5458;51.496;7.334;2022-09-19T17:41:31;1.30;;;0.88;;
10811;SDS011;5458;51.496;7.334;2022-09-19T17:43:59;2.97;;;1.30;;
10811;SDS011;5458;51.496;7.334;2022-09-19T17:46:25;2.83;;;1.20;;
10811;SDS011;5458;51.496;7.334;2022-09-19T17:48:51;2.83;;;1.30;;
10811;SDS011;5458;51.496;7.334;2022-09-19T17:51:18;4.00;;;2.13;;
10811;SDS011;5458;51.496;7.334;2022-09-19T17:53:44;3.42;;;1.85;;
10811;SDS011;5458;51.496;7.334;2022-09-19T17:56:12;2.10;;;1.27;;
10811;SDS011;5458;51.496;7.334;2022-09-19T17:58:39;6.38;;;1.60;;
10811;SDS011;5458;51.496;7.334;2022-09-19T18:01:05;4.07;;;1.50;;
10811;SDS011;5458;51.496;7.334;2022-09-19T18:03:50;3.75;;;1.30;;
10811;SDS011;5458;51.496;7.334;2022-09-19T18:06:16;3.35;;;1.45;;
10811;SDS011;5458;51.496;7.334;2022-09-19T18:08:42;3.30;;;1.60;;
10811;SDS011;5458;51.496;7.334;2022-09-19T18:11:08;2.33;;;1.60;;
10811;SDS011;5458;51.496;7.334;2022-09-19T18:13:34;2.60;;;1.55;;
10811;SDS011;5458;51.496;7.334;2022-09-19T18:16:04;4.22;;;1.40;;
10811;SDS011;5458;51.496;7.334;2022-09-19T18:18:35;2.38;;;1.60;;
10811;SDS011;5458;51.496;7.334;2022-09-19T18:21:02;2.78;;;1.75;;
10811;SDS011;5458;51.496;7.334;2022-09-19T18:23:32;4.45;;;1.80;;
10811;SDS011;5458;51.496;7.334;2022-09-19T18:25:58;5.03;;;1.80;;
10811;SDS011;5458;51.496;7.334;2022-09-19T18:28:26;4.82;;;1.73;;